• Join FlightAware (Why Join?)
  • Login
  • US Flag 
02:03AM EST


 

Airport Tracker/Info


-or-


 

Live Flight TrackerFlight Track Log ✈ TAM3387 ✈ 19-Sep-2013 ✈ SBBE / BEL - SBGR / GRU

Flight Track Log - Related Links

Times and Time Zones

All times are in EDT time to prevent confusion due to time zone crossing. See the TAM3387 flight status page for this flight to view local times or setup timezone preferences in your user account.

Time Position Orientation Groundspeed Altitude Reporting Facility
EDT Latitude Longitude Course Direction KTS MPH feet Rate Location/Type
06:40AM -4.1360 -48.2399 175° South  Level Estimated
06:41AM -4.2420 -48.2308 175° South  Level Estimated
06:42AM -4.3481 -48.2216 175° South  Level Estimated
06:43AM -4.4734 -48.2108 175° South  Level Estimated
06:44AM -4.5986 -48.2001 175° South  Level Estimated
06:45AM -4.7239 -48.1893 175° South  Level Estimated
06:46AM -4.8492 -48.1785 175° South  Level Estimated
06:47AM -4.9745 -48.1677 175° South  Level Estimated
06:48AM -5.0999 -48.1569 175° South  Level Estimated
06:49AM -5.2252 -48.1461 175° South  Level Estimated
06:50AM -5.3505 -48.1353 175° South  Level Estimated
06:51AM -5.4757 -48.1244 175° South  Level Estimated
06:52AM -5.6010 -48.1136 175° South  Level Estimated
06:53AM -5.7263 -48.1028 175° South  Level Estimated
06:54AM -5.8517 -48.0920 175° South  Level Estimated
06:55AM -5.9770 -48.0811 175° South  Level Estimated
06:56AM -6.1023 -48.0703 175° South  Level Estimated
06:57AM -6.2276 -48.0594 175° South  Level Estimated
06:58AM -6.3528 -48.0486 175° South  Level Estimated
06:59AM -6.4781 -48.0377 175° South  Level Estimated
07:00AM -6.6034 -48.0269 175° South  Level Estimated
07:01AM -6.7288 -48.0160 175° South  Level Estimated
07:02AM -6.8541 -48.0051 175° South  Level Estimated
07:03AM -6.9794 -47.9943 175° South  Level Estimated
07:04AM -7.1047 -47.9834 175° South  Level Estimated
07:05AM -7.2299 -47.9725 175° South  Level Estimated
07:06AM -7.3552 -47.9616 175° South  Level Estimated
07:07AM -7.4805 -47.9507 175° South  Level Estimated
07:08AM -7.6059 -47.9398 175° South  Level Estimated
07:09AM -7.7312 -47.9289 175° South  Level Estimated
07:10AM -7.8565 -47.9179 175° South  Level Estimated
07:11AM -7.9818 -47.9070 175° South  Level Estimated
07:12AM -8.1070 -47.8961 175° South  Level Estimated
07:13AM -8.2324 -47.8852 175° South  Level Estimated
07:14AM -8.3576 -47.8742 175° South  Level Estimated
07:15AM -8.4830 -47.8633 175° South  Level Estimated
07:16AM -8.6082 -47.8523 175° South  Level Estimated
07:17AM -8.7336 -47.8413 175° South  Level Estimated
07:18AM -8.8588 -47.8303 175° South  Level Estimated
07:19AM -8.9841 -47.8194 175° South  Level Estimated
07:20AM -9.1095 -47.8084 175° South  Level Estimated
07:21AM -9.2347 -47.7974 175° South  Level Estimated
07:22AM -9.3601 -47.7864 175° South  Level Estimated
07:23AM -9.4853 -47.7753 175° South  Level Estimated
07:24AM -9.6106 -47.7643 175° South  Level Estimated
07:25AM -9.7359 -47.7533 175° South  Level Estimated
07:26AM -9.8612 -47.7423 175° South  Level Estimated
07:27AM -9.9865 -47.7312 175° South  Level Estimated
07:28AM -10.1118 -47.7201 175° South  Level Estimated
07:29AM -10.2371 -47.7091 175° South  Level Estimated
07:30AM -10.3624 -47.6980 175° South  Level Estimated
07:31AM -10.4877 -47.6869 175° South  Level Estimated
07:32AM -10.6130 -47.6758 175° South  Level Estimated
07:33AM -10.7382 -47.6647 175° South  Level Estimated
07:34AM -10.8635 -47.6536 175° South  Level Estimated
07:35AM -10.9888 -47.6425 175° South  Level Estimated
07:36AM -11.1141 -47.6314 175° South  Level Estimated
07:37AM -11.2394 -47.6203 175° South  Level Estimated
07:38AM -11.3647 -47.6091 175° South  Level Estimated
07:39AM -11.4900 -47.5979 175° South  Level Estimated
07:40AM -11.6153 -47.5868 175° South  Level Estimated
07:41AM -11.7406 -47.5756 175° South  Level Estimated
07:42AM -11.8659 -47.5644 175° South  Level Estimated
07:43AM -11.9911 -47.5532 175° South  Level Estimated
07:44AM -12.1164 -47.5420 175° South  Level Estimated
07:45AM -12.2417 -47.5308 175° South  Level Estimated
07:46AM -12.3670 -47.5195 175° South  Level Estimated
07:47AM -12.4923 -47.5083 175° South  Level Estimated
07:48AM -12.6176 -47.4971 175° South  Level Estimated
07:49AM -12.7429 -47.4858 175° South  Level Estimated
07:50AM -12.8681 -47.4745 175° South  Level Estimated
07:51AM -12.9934 -47.4632 175° South  Level Estimated
07:52AM -13.1187 -47.4519 175° South  Level Estimated
07:53AM -13.2440 -47.4406 175° South  Level Estimated
07:54AM -13.3693 -47.4293 175° South  Level Estimated
07:55AM -13.4945 -47.4180 175° South  Level Estimated
07:56AM -13.6198 -47.4066 175° South  Level Estimated
07:57AM -13.7451 -47.3953 175° South  Level Estimated
07:58AM -13.8704 -47.3839 175° South  Level Estimated
07:59AM -13.9957 -47.3725 175° South  Level Estimated
08:00AM -14.1209 -47.3611 175° South  Level Estimated
08:01AM -14.2462 -47.3498 175° South  Level Estimated
08:02AM -14.3715 -47.3383 175° South  Level Estimated
08:03AM -14.4968 -47.3269 175° South  Level Estimated
08:04AM -14.6221 -47.3155 175° South  Level Estimated
08:05AM -14.7473 -47.3040 175° South  Level Estimated
08:06AM -14.8726 -47.2925 175° South  Level Estimated
08:07AM -14.9979 -47.2811 175° South  Level Estimated
08:08AM -15.1232 -47.2696 175° South  Level Estimated
08:09AM -15.2485 -47.2580 175° South  Level Estimated
08:10AM -15.3737 -47.2465 175° South  Level Estimated
08:11AM -15.4990 -47.2350 175° South  Level Estimated
08:12AM -15.6243 -47.2234 175° South  Level Estimated
08:13AM -15.7495 -47.2119 175° South  Level Estimated
08:14AM -15.8748 -47.2003 175° South  Level Estimated
08:15AM -16.0001 -47.1887 175° South  Level Estimated
08:16AM -16.1253 -47.1771 175° South  Level Estimated
08:17AM -16.2506 -47.1655 175° South  Level Estimated
08:18AM -16.3759 -47.1538 175° South  Level Estimated
08:19AM -16.5012 -47.1422 175° South  Level Estimated
08:20AM -16.6264 -47.1305 175° South  Level Estimated
08:21AM -16.7517 -47.1188 175° South  Level Estimated
08:22AM -16.8770 -47.1071 175° South  Level Estimated
08:23AM -17.0022 -47.0954 175° South  Level Estimated
08:24AM -17.1275 -47.0837 175° South  Level Estimated
08:25AM -17.2528 -47.0719 175° South  Level Estimated
08:26AM -17.3780 -47.0602 175° South  Level Estimated
08:27AM -17.5033 -47.0484 175° South  Level Estimated
08:28AM -17.6285 -47.0366 175° South  Level Estimated
08:29AM -17.7538 -47.0248 175° South  Level Estimated
08:30AM -17.8790 -47.0130 175° South  Level Estimated
08:31AM -18.0043 -47.0011 175° South  Level Estimated
08:32AM -18.1296 -46.9893 175° South  Level Estimated
08:33AM -18.2548 -46.9774 175° South  Level Estimated
08:34AM -18.3801 -46.9655 175° South  Level Estimated
08:35AM -18.5054 -46.9536 175° South  Level Estimated
08:36AM -18.6306 -46.9417 175° South  Level Estimated
08:37AM -18.7559 -46.9297 175° South  Level Estimated
08:38AM -18.8811 -46.9177 175° South  Level Estimated
08:39AM -19.0064 -46.9058 175° South  Level Estimated
08:40AM -19.1316 -46.8938 175° South  Level Estimated
08:41AM -19.2569 -46.8817 175° South  Level Estimated
08:42AM -19.3821 -46.8697 175° South  Level Estimated
08:43AM -19.5074 -46.8576 175° South  Level Estimated
08:44AM -19.6326 -46.8456 175° South  Level Estimated
08:45AM -19.7579 -46.8335 175° South  Level Estimated
08:46AM -19.8831 -46.8214 175° South  Level Estimated
08:47AM -20.0084 -46.8092 175° South  Level Estimated
08:48AM -20.1336 -46.7971 175° South  Level Estimated
08:49AM -20.2589 -46.7849 175° South  Level Estimated
08:50AM -20.3841 -46.7727 175° South  Level Estimated
08:51AM -20.5093 -46.7605 175° South  Level Estimated
08:52AM -20.6346 -46.7483 175° South  Level Estimated
08:53AM -20.7598 -46.7360 175° South  Level Estimated
08:54AM -20.8851 -46.7238 175° South  Level Estimated
08:55AM -21.0103 -46.7115 175° South  Level Estimated
08:56AM -21.1355 -46.6992 175° South  Level Estimated
08:57AM -21.2608 -46.6868 175° South  Level Estimated
08:58AM -21.3860 -46.6745 175° South  Level Estimated
08:59AM -21.5113 -46.6621 175° South  Level Estimated
09:00AM -21.6365 -46.6497 175° South  Level Estimated
09:01AM -21.7617 -46.6373 175° South  Level Estimated
09:02AM -21.8870 -46.6249 175° South  Level Estimated
09:03AM -22.0122 -46.6124 175° South  Level Estimated
09:04AM -22.1374 -46.5999 175° South  Level Estimated
09:05AM -22.2627 -46.5874 175° South  Level Estimated
09:06AM -22.3879 -46.5749 175° South  Level Estimated
09:07AM -22.5131 -46.5623 175° South  Level Estimated
09:08AM -22.6383 -46.5498 175° South  Level Estimated
09:09AM -22.7636 -46.5372 175° South  Level Estimated
09:10AM -22.8888 -46.5245 175° South  Level Estimated
09:11AM -23.0140 -46.5119 175° South  Level Estimated
09:12AM -23.1393 -46.4992 175° South  Level Estimated
09:13AM -23.2645 -46.4865 175° South  Level Estimated
09:14AM -23.3897 -46.4738 175° South  Level Estimated
09:15AM -23.4321 -46.4695 175° South  Level Estimated
09:16AM -23.4321 -46.4695 190° South  Level Estimated
09:17AM -23.4321 -46.4695 350° North  Level Estimated
09:18AM -23.4321 -46.4695 350° North  Level Estimated
09:19AM -23.4321 -46.4695 350° North  Level Estimated
09:20AM -23.4321 -46.4695 350° North  Level Estimated
09:21AM -23.4321 -46.4695 350° North  Level Estimated
09:22AM -23.4321 -46.4695 350° North  Level Estimated
09:23AM -23.4321 -46.4695 350° North  Level Estimated
09:24AM -23.4321 -46.4695 350° North  Level Estimated
09:25AM -23.4321 -46.4695 350° North  Level Estimated
09:26AM -23.4321 -46.4695 350° North  Level Estimated